createdAt,value
2022-12-06T02:35:35.886Z,-9.58
2022-12-06T02:36:48.769Z,-9.50
2022-12-06T02:37:58.653Z,-9.46
2022-12-06T02:39:05.650Z,-9.44
2022-12-06T02:40:16.296Z,-9.44
2022-12-06T02:41:23.316Z,-9.44
2022-12-06T02:42:30.283Z,-9.41
2022-12-06T02:43:37.236Z,-9.40
2022-12-06T02:44:46.966Z,-9.40
2022-12-06T02:45:53.919Z,-9.37
2022-12-06T02:47:01.331Z,-9.38
2022-12-06T02:48:07.575Z,-9.36
2022-12-06T02:49:13.992Z,-9.35
2022-12-06T02:50:20.916Z,-9.35
2022-12-06T02:51:27.643Z,-9.35
2022-12-06T02:52:34.396Z,-9.37
2022-12-06T02:53:41.610Z,-9.35
2022-12-06T02:54:48.557Z,-9.34
2022-12-06T02:55:53.067Z,-9.32
2022-12-06T02:56:57.072Z,-9.35
2022-12-06T02:58:01.047Z,-9.34
2022-12-06T02:59:05.113Z,-9.34
2022-12-06T03:00:32.497Z,-9.33
2022-12-06T03:01:39.636Z,-9.33
2022-12-06T03:02:44.021Z,-9.33
2022-12-06T03:04:00.006Z,-9.35
2022-12-06T03:05:16.159Z,-9.36
2022-12-06T03:06:23.152Z,-9.37
2022-12-06T03:07:39.200Z,-9.36
2022-12-06T03:08:49.246Z,-9.38
2022-12-06T03:10:07.739Z,-9.38
2022-12-06T03:11:12.653Z,-9.38
2022-12-06T03:12:25.176Z,-9.40
2022-12-06T03:13:57.534Z,-9.41
2022-12-06T03:15:13.311Z,-9.42
2022-12-06T03:16:37.136Z,-9.44
2022-12-06T03:17:56.066Z,-9.45
2022-12-06T03:19:08.535Z,-9.48
2022-12-06T03:20:16.267Z,-9.48
2022-12-06T03:21:32.127Z,-9.48
2022-12-06T03:22:40.176Z,-9.49
2022-12-06T03:23:47.374Z,-9.50
2022-12-06T03:24:54.067Z,-9.50
2022-12-06T03:26:01.062Z,-9.48
2022-12-06T03:27:13.429Z,-9.48
2022-12-06T03:28:20.065Z,-9.48
2022-12-06T03:29:26.485Z,-9.45
2022-12-06T03:30:33.999Z,-9.46
2022-12-06T03:31:41.433Z,-9.45
2022-12-06T03:32:48.105Z,-9.46
2022-12-06T03:34:03.796Z,-9.48
2022-12-06T03:35:10.825Z,-9.46
2022-12-06T03:36:17.630Z,-9.46
2022-12-06T03:37:24.901Z,-9.48
2022-12-06T03:38:34.716Z,-9.47
2022-12-06T03:39:50.414Z,-9.48
2022-12-06T03:40:56.786Z,-9.50
2022-12-06T03:42:02.693Z,-9.49
2022-12-06T03:43:07.991Z,-9.49
2022-12-06T03:44:12.131Z,-9.47
2022-12-06T03:45:16.846Z,-9.47
2022-12-06T03:46:27.755Z,-9.50
2022-12-06T03:47:49.212Z,-9.50
2022-12-06T03:49:08.172Z,-9.50
2022-12-06T03:50:15.915Z,-9.52
2022-12-06T03:51:22.777Z,-9.51
2022-12-06T03:52:30.986Z,-9.50
2022-12-06T03:53:35.063Z,-9.49
2022-12-06T03:54:43.128Z,-9.50
2022-12-06T03:55:47.055Z,-9.50
2022-12-06T03:56:51.048Z,-9.53
2022-12-06T03:57:55.119Z,-9.52
2022-12-06T03:58:58.959Z,-9.52
2022-12-06T04:00:05.467Z,-9.52
2022-12-06T04:01:09.510Z,-9.53
2022-12-06T04:02:13.724Z,-9.54
2022-12-06T04:03:20.741Z,-9.54
2022-12-06T04:04:24.645Z,-9.51
2022-12-06T04:05:28.501Z,-9.76
2022-12-06T04:06:32.797Z,-9.53
2022-12-06T04:07:36.911Z,-9.51
2022-12-06T04:08:41.214Z,-9.50
2022-12-06T04:09:45.142Z,-9.52
2022-12-06T04:10:49.103Z,-9.55
2022-12-06T04:11:53.030Z,-9.54
2022-12-06T04:12:57.079Z,-9.53
2022-12-06T04:14:00.960Z,-9.52
2022-12-06T04:15:07.065Z,-9.53
2022-12-06T04:16:11.396Z,-9.53
2022-12-06T04:17:15.461Z,-9.53
2022-12-06T04:18:19.367Z,-9.53
2022-12-06T04:19:24.837Z,-9.54
2022-12-06T04:20:29.994Z,-9.54
2022-12-06T04:21:33.914Z,-9.54
2022-12-06T04:22:37.929Z,-9.53
2022-12-06T04:23:44.593Z,-9.54
2022-12-06T04:24:48.585Z,-9.53
2022-12-06T04:25:52.458Z,-9.52
2022-12-06T04:26:56.481Z,-9.53
2022-12-06T04:28:00.933Z,-9.53
2022-12-06T04:29:04.936Z,-9.52
2022-12-06T04:30:10.517Z,-9.52
2022-12-06T04:31:21.523Z,-9.52
2022-12-06T04:32:20.659Z,-9.52
2022-12-06T04:33:24.685Z,-9.53
2022-12-06T04:34:28.670Z,-9.54
2022-12-06T04:35:32.592Z,-9.57
2022-12-06T04:36:38.501Z,-9.57
2022-12-06T04:37:42.483Z,-9.57
2022-12-06T04:38:46.360Z,-9.55
2022-12-06T04:39:50.675Z,-9.55
2022-12-06T04:40:54.600Z,-9.54
2022-12-06T04:42:00.093Z,-9.54
2022-12-06T04:43:04.052Z,-9.53
2022-12-06T04:44:08.002Z,-9.55
2022-12-06T04:45:12.074Z,-9.53
2022-12-06T04:46:16.607Z,-9.53
2022-12-06T04:47:21.040Z,-9.55
2022-12-06T04:48:25.135Z,-9.55
2022-12-06T04:49:29.047Z,-9.54
2022-12-06T04:50:32.972Z,-9.54
2022-12-06T04:51:36.915Z,-9.54
2022-12-06T04:52:40.841Z,-9.54
2022-12-06T04:53:44.895Z,-9.54
2022-12-06T04:54:48.883Z,-9.55
2022-12-06T04:55:52.804Z,-9.55
2022-12-06T04:56:58.579Z,-9.54
2022-12-06T04:58:02.535Z,-9.58
2022-12-06T04:59:06.617Z,-9.57
2022-12-06T05:00:11.566Z,-9.58
2022-12-06T05:01:18.495Z,-9.56
2022-12-06T05:02:22.572Z,-9.56
2022-12-06T05:03:26.685Z,-9.55
2022-12-06T05:04:30.861Z,-9.55
2022-12-06T05:05:34.872Z,-9.55
2022-12-06T05:06:39.605Z,-9.57
2022-12-06T05:07:43.532Z,-9.57
2022-12-06T05:08:47.547Z,-9.58
2022-12-06T05:09:53.080Z,-9.58
2022-12-06T05:10:57.477Z,-9.57
2022-12-06T05:12:01.596Z,-9.57
2022-12-06T05:13:06.275Z,-9.59
2022-12-06T05:14:10.265Z,-9.60
2022-12-06T05:15:16.060Z,-9.57
2022-12-06T05:16:20.027Z,-9.58
2022-12-06T05:17:23.922Z,-9.58
2022-12-06T05:18:28.489Z,-9.57
2022-12-06T05:19:32.356Z,-9.54
2022-12-06T05:20:37.183Z,-9.52
2022-12-06T05:21:41.220Z,-9.53
2022-12-06T05:22:45.244Z,-9.48
2022-12-06T05:23:50.259Z,-9.45
2022-12-06T05:24:54.155Z,-9.41
2022-12-06T05:26:03.050Z,-9.40
2022-12-06T05:27:06.950Z,-9.37
2022-12-06T05:28:10.980Z,-9.32
2022-12-06T05:29:17.987Z,-9.29
2022-12-06T05:30:22.114Z,-9.26
2022-12-06T05:31:27.194Z,-9.23
2022-12-06T05:32:31.160Z,-9.21
2022-12-06T05:33:36.023Z,-9.19
2022-12-06T05:34:41.420Z,-9.20
2022-12-06T05:35:45.487Z,-9.16
2022-12-06T05:36:49.934Z,-9.12
2022-12-06T05:37:53.929Z,-9.10
2022-12-06T05:38:58.024Z,-9.08
2022-12-06T05:40:02.431Z,-9.05
2022-12-06T05:41:07.486Z,-9.06
2022-12-06T05:42:13.460Z,-9.02
2022-12-06T05:43:17.741Z,-9.00
2022-12-06T05:44:21.750Z,-8.99
2022-12-06T05:45:27.327Z,-8.99
2022-12-06T05:46:31.467Z,-8.96
2022-12-06T05:47:35.825Z,-8.98
2022-12-06T05:48:39.955Z,-8.99
2022-12-06T05:49:44.039Z,-8.99
2022-12-06T05:50:49.233Z,-9.01
2022-12-06T05:51:53.383Z,-8.99
2022-12-06T05:53:01.382Z,-9.00
2022-12-06T05:54:05.416Z,-9.00
2022-12-06T05:55:09.597Z,-9.02
2022-12-06T05:56:13.954Z,-9.01
2022-12-06T05:57:17.948Z,-9.02
2022-12-06T05:58:22.048Z,-9.00
2022-12-06T05:59:26.004Z,-8.99
2022-12-06T06:00:30.187Z,-8.95
2022-12-06T06:01:35.341Z,-8.96
2022-12-06T06:02:40.909Z,-8.92
2022-12-06T06:03:47.991Z,-8.92
2022-12-06T06:04:54.156Z,-8.93
2022-12-06T06:06:00.228Z,-8.88
2022-12-06T06:07:04.276Z,-8.89
2022-12-06T06:08:08.255Z,-8.90
2022-12-06T06:09:12.272Z,-8.87
2022-12-06T06:10:17.170Z,-8.87
2022-12-06T06:11:22.694Z,-8.87
2022-12-06T06:12:26.627Z,-8.79
2022-12-06T06:13:30.486Z,-8.78
2022-12-06T06:14:34.428Z,-8.75
2022-12-06T06:15:38.936Z,-8.74
2022-12-06T06:16:43.089Z,-8.74
2022-12-06T06:17:47.042Z,-8.72
2022-12-06T10:23:10.991Z,-5.08
2022-12-06T10:24:20.738Z,-5.03
2022-12-06T10:25:30.645Z,-5.06
2022-12-06T10:26:46.420Z,-5.05
2022-12-06T10:27:59.006Z,-5.00
2022-12-06T10:29:29.480Z,-4.98
2022-12-06T10:30:29.915Z,-4.98
2022-12-06T10:31:45.405Z,-4.99
2022-12-06T10:33:10.487Z,-5.00
2022-12-06T10:34:29.684Z,-4.97
2022-12-06T10:35:54.634Z,-4.97
2022-12-06T10:37:24.103Z,-4.97
2022-12-06T10:38:48.915Z,-4.96
2022-12-06T10:39:57.453Z,-4.93
2022-12-06T10:41:04.472Z,-4.93
2022-12-06T10:42:16.182Z,-4.88
2022-12-06T10:43:28.781Z,-4.84
2022-12-06T10:44:47.346Z,-4.81
2022-12-06T10:45:57.227Z,-4.78
2022-12-06T10:47:07.106Z,-4.77
2022-12-06T10:48:17.001Z,-4.74
2022-12-06T10:49:35.933Z,-4.76
2022-12-06T10:50:42.188Z,-4.77
2022-12-06T10:53:18.465Z,-4.74
2022-12-06T10:54:31.216Z,-4.70
2022-12-06T10:55:38.230Z,-4.67
2022-12-06T10:56:43.915Z,-4.64
2022-12-06T10:57:53.508Z,-4.64
2022-12-06T10:59:00.560Z,-4.59
2022-12-06T11:00:16.942Z,-4.58
2022-12-06T11:01:24.380Z,-4.57
2022-12-06T11:02:37.386Z,-4.55
2022-12-06T11:03:44.442Z,-4.57
2022-12-06T11:04:56.082Z,-4.58
2022-12-06T11:06:19.371Z,-4.56
2022-12-06T11:07:26.371Z,-4.55
2022-12-06T11:08:36.165Z,-4.51
2022-12-06T11:09:44.590Z,-4.51
2022-12-06T11:10:48.959Z,-4.51
2022-12-06T11:11:53.262Z,-4.50
2022-12-06T11:13:03.225Z,-4.51
2022-12-06T11:14:36.178Z,-4.52
2022-12-06T11:15:43.230Z,-4.49
2022-12-06T11:17:07.830Z,-4.51
2022-12-06T11:18:18.014Z,-4.52
2022-12-06T11:19:27.508Z,-4.52
2022-12-06T11:20:34.557Z,-4.53
2022-12-06T11:21:41.539Z,-4.54
2022-12-06T11:23:03.570Z,-4.55
2022-12-06T11:24:28.466Z,-4.54
2022-12-06T11:25:38.550Z,-4.54
2022-12-06T11:27:12.704Z,-4.54
2022-12-06T11:28:43.296Z,-4.54
2022-12-06T11:29:50.383Z,-4.52
2022-12-06T11:30:56.594Z,-4.50
2022-12-06T11:32:05.671Z,-4.50
2022-12-06T11:33:11.158Z,-4.51
2022-12-06T11:34:18.191Z,-4.51
2022-12-06T11:35:25.109Z,-4.47
2022-12-06T11:36:30.155Z,-4.47
2022-12-06T11:37:41.431Z,-4.44
2022-12-06T11:38:44.562Z,-4.45
2022-12-06T11:39:51.459Z,-4.45
2022-12-06T11:40:56.056Z,-4.43
2022-12-06T11:42:03.191Z,-4.43
2022-12-06T11:43:10.225Z,-4.43
2022-12-06T11:44:19.792Z,-4.38
2022-12-06T11:45:34.344Z,-4.38
2022-12-06T11:46:40.374Z,-4.38
2022-12-06T11:47:45.011Z,-4.36
2022-12-06T11:48:49.257Z,-4.38
2022-12-06T11:50:00.373Z,-4.37
2022-12-06T11:51:08.271Z,-4.36
2022-12-06T11:52:15.486Z,-4.39
2022-12-06T11:53:34.213Z,-4.38
2022-12-06T11:54:42.797Z,-4.36
2022-12-06T11:55:53.569Z,-4.35
2022-12-06T11:56:58.748Z,-4.35
2022-12-06T11:58:05.730Z,-4.36
2022-12-06T11:59:33.359Z,-4.34
2022-12-06T12:00:38.680Z,-4.34
2022-12-06T12:01:48.386Z,-4.32
2022-12-06T12:02:55.856Z,-4.32
2022-12-06T12:04:02.847Z,-4.32
2022-12-06T12:05:11.169Z,-4.31
2022-12-06T12:06:23.861Z,-4.29
2022-12-06T12:07:29.763Z,-4.28
2022-12-06T12:08:35.085Z,-4.29
2022-12-06T12:09:50.884Z,-4.27
2022-12-06T12:11:04.914Z,-4.25
2022-12-06T12:12:13.230Z,-4.25
2022-12-06T12:13:22.291Z,-4.24
2022-12-06T12:14:29.389Z,-4.24
2022-12-06T12:15:35.055Z,-4.27
2022-12-06T12:16:47.660Z,-4.27
2022-12-06T12:17:55.501Z,-4.25
2022-12-06T12:19:05.505Z,-4.23
2022-12-06T12:20:30.377Z,-4.22
2022-12-06T12:21:37.422Z,-4.22
2022-12-06T13:23:09.302Z,-4.59
2022-12-06T13:24:22.192Z,-4.54
2022-12-06T13:25:26.294Z,-4.50
2022-12-06T13:28:14.818Z,-4.36
2022-12-06T13:29:42.913Z,-4.44
2022-12-06T13:30:49.703Z,-4.44
2022-12-06T13:31:56.304Z,-4.47
2022-12-06T13:33:03.014Z,-4.52
2022-12-06T13:34:17.915Z,-4.56
2022-12-06T13:35:33.833Z,-4.58
2022-12-06T13:36:37.917Z,-6.29
2022-12-06T13:37:55.290Z,-4.70
2022-12-06T13:38:59.694Z,-4.72
2022-12-06T13:40:07.020Z,-4.77
2022-12-06T13:41:31.263Z,-4.80
2022-12-06T13:42:45.325Z,-4.84
2022-12-06T13:43:56.049Z,-4.88
2022-12-06T13:45:03.707Z,-4.93
2022-12-06T13:46:11.242Z,-4.98
2022-12-06T13:47:36.157Z,-4.98
2022-12-06T13:48:55.061Z,-5.02
2022-12-06T13:50:04.773Z,-5.06
2022-12-06T13:51:15.011Z,-5.09
2022-12-06T13:52:38.499Z,-5.09
2022-12-06T13:54:13.482Z,-5.17
2022-12-06T13:55:30.757Z,-5.24
2022-12-06T13:57:02.192Z,-5.27
2022-12-06T13:58:11.982Z,-5.32
2022-12-06T13:59:00.433Z,-5.34
2022-12-06T14:01:40.755Z,-5.42
2022-12-06T14:02:46.411Z,-5.47
2022-12-06T14:03:56.080Z,-5.49
2022-12-06T18:31:13.394Z,-6.17
2022-12-06T18:33:48.880Z,-5.99
2022-12-06T18:34:59.894Z,-5.95
2022-12-06T18:37:56.791Z,-5.91
2022-12-06T18:41:30.848Z,-5.80
2022-12-06T18:42:37.861Z,-5.79
2022-12-06T18:44:00.545Z,-5.74
2022-12-06T18:45:42.097Z,-5.72
2022-12-06T18:47:17.097Z,-5.69
2022-12-06T18:48:25.620Z,-5.69
2022-12-06T18:50:10.301Z,-5.61
2022-12-06T18:51:17.827Z,-5.61
2022-12-06T18:52:25.734Z,-5.63
2022-12-06T18:53:31.316Z,-5.60
2022-12-06T18:54:35.319Z,-5.60
2022-12-06T18:55:43.652Z,-5.59
2022-12-06T18:56:47.621Z,-5.56
2022-12-06T18:57:54.299Z,-5.56
2022-12-06T18:59:03.961Z,-5.53
2022-12-06T19:00:44.287Z,-5.52
2022-12-06T19:14:36.244Z,-5.64
2022-12-06T19:19:00.557Z,-5.59
2022-12-06T19:20:04.671Z,-5.58
2022-12-06T19:20:50.930Z,-5.59
2022-12-06T19:22:13.489Z,-5.56
2022-12-06T19:23:05.542Z,-5.56
2022-12-06T19:24:16.053Z,-5.56
2022-12-06T19:25:21.546Z,-5.54
2022-12-06T19:26:27.201Z,-5.54
2022-12-06T19:27:35.822Z,-5.53
2022-12-06T19:28:48.010Z,-5.54
2022-12-06T19:31:08.399Z,-5.56
2022-12-06T19:32:10.807Z,-5.58
2022-12-06T19:33:16.332Z,-5.61
2022-12-06T19:47:32.424Z,-6.18
2022-12-06T19:48:39.294Z,-6.18
2022-12-06T19:49:43.325Z,-6.17
2022-12-06T19:50:47.332Z,-6.17
2022-12-06T19:51:53.196Z,-6.17
2022-12-06T19:52:58.755Z,-6.15
2022-12-06T19:54:07.480Z,-6.17
2022-12-06T19:55:13.232Z,-6.15
2022-12-06T19:56:20.431Z,-6.17
2022-12-06T19:57:26.137Z,-6.18
2022-12-06T19:58:31.836Z,-6.18
2022-12-06T19:59:52.594Z,-6.20
2022-12-06T20:00:44.929Z,-6.19
2022-12-06T20:01:54.776Z,-6.19
2022-12-06T20:03:00.560Z,-6.20
2022-12-06T20:04:10.959Z,-6.20
2022-12-06T20:05:16.324Z,-6.19
2022-12-06T20:06:24.555Z,-6.21
2022-12-06T20:07:32.288Z,-6.21
2022-12-06T20:08:37.893Z,-6.22
2022-12-06T20:09:41.880Z,-6.22
2022-12-06T20:10:46.107Z,-6.22
2022-12-06T20:11:52.692Z,-6.25
2022-12-06T20:13:02.322Z,-6.25
2022-12-06T20:14:06.859Z,-6.25
2022-12-06T20:15:11.339Z,-6.26
2022-12-06T20:16:19.827Z,-6.25
2022-12-06T20:17:26.907Z,-6.27
2022-12-06T20:18:33.050Z,-6.27
2022-12-06T20:19:38.451Z,-6.27
2022-12-06T20:20:44.076Z,-6.27
2022-12-06T20:21:51.304Z,-6.30
2022-12-06T20:22:57.949Z,-6.31
2022-12-06T20:24:03.949Z,-6.34
2022-12-06T20:25:09.613Z,-6.34
2022-12-06T20:26:48.181Z,-6.36
2022-12-06T20:27:23.989Z,-6.36
2022-12-06T20:28:27.994Z,-6.37
2022-12-06T20:29:33.488Z,-6.39
2022-12-06T20:30:50.135Z,-6.39
2022-12-06T20:31:55.324Z,-6.40
2022-12-06T20:33:05.688Z,-6.39
2022-12-06T20:34:15.006Z,-6.41
2022-12-06T20:35:19.304Z,-6.42
2022-12-06T20:36:27.911Z,-6.44
2022-12-06T20:37:30.707Z,-6.44
2022-12-06T20:38:36.184Z,-6.44
2022-12-06T20:39:40.484Z,-6.46
2022-12-06T20:40:48.494Z,-6.48
2022-12-06T20:41:52.840Z,-6.50
2022-12-06T20:42:56.791Z,-6.50
2022-12-06T20:44:06.328Z,-6.53
2022-12-06T20:45:11.962Z,-6.55
2022-12-06T20:46:21.948Z,-6.55
2022-12-06T20:47:28.089Z,-6.55
2022-12-06T20:48:33.150Z,-6.57
2022-12-06T20:49:40.964Z,-6.57
2022-12-06T20:50:46.175Z,-6.58
2022-12-06T20:51:53.215Z,-6.60
2022-12-06T20:57:05.839Z,-6.65
2022-12-06T20:58:16.882Z,-6.65
2022-12-06T20:59:20.639Z,-6.65
2022-12-06T21:01:41.266Z,-6.66
2022-12-06T21:02:54.695Z,-6.69
2022-12-06T21:03:55.785Z,-6.70
2022-12-06T21:05:04.051Z,-6.70
2022-12-06T21:06:10.501Z,-6.75
2022-12-06T21:07:16.015Z,-6.75
2022-12-06T21:08:21.662Z,-6.75
2022-12-06T21:09:25.651Z,-6.75
2022-12-06T21:10:33.806Z,-6.74
2022-12-06T21:11:45.577Z,-6.72
2022-12-06T21:12:47.440Z,-6.72
2022-12-06T21:13:58.075Z,-6.74
2022-12-06T21:15:03.517Z,-6.75
2022-12-06T21:16:12.721Z,-6.75
2022-12-06T21:17:17.871Z,-6.74
2022-12-06T21:18:25.572Z,-6.75
2022-12-06T21:19:29.045Z,-6.78
2022-12-06T21:21:55.558Z,-6.79
2022-12-06T21:23:00.586Z,-6.79
2022-12-06T21:24:09.404Z,-6.80
2022-12-06T21:25:17.820Z,-6.84
2022-12-06T21:26:34.130Z,-6.83
2022-12-06T21:27:33.334Z,-6.83
2022-12-06T21:28:45.337Z,-6.83
2022-12-06T21:29:49.268Z,-6.83
2022-12-06T21:30:55.630Z,-6.84
2022-12-06T21:32:01.336Z,-6.88
2022-12-06T21:33:06.789Z,-6.87
2022-12-06T21:34:13.824Z,-6.90
2022-12-06T21:35:17.830Z,-6.90
2022-12-06T21:36:21.768Z,-6.89
2022-12-06T21:37:25.655Z,-6.89
2022-12-06T21:38:35.640Z,-6.87
2022-12-06T21:57:17.724Z,-7.09
2022-12-06T21:58:59.836Z,-7.04
2022-12-06T22:00:45.929Z,-6.96
2022-12-06T22:01:51.182Z,-6.92
2022-12-06T22:03:03.088Z,-6.92
2022-12-06T22:05:34.552Z,-6.81
2022-12-06T22:06:40.222Z,-6.78
2022-12-06T22:07:45.744Z,-6.75
2022-12-06T22:08:56.724Z,-6.75
2022-12-06T22:10:05.311Z,-6.70
2022-12-06T22:11:15.875Z,-6.66
2022-12-06T22:12:23.927Z,-6.65
2022-12-06T22:13:35.940Z,-6.65
2022-12-06T22:16:01.590Z,-6.60
2022-12-06T22:17:03.426Z,-6.58
